Historique des mesures à Cassis (13260), France
Quotidien Résumé Mars 10, 2018 Unités:  Métrique    US   Métrique/US
« Précédent (Jour)
Suivant (Jour) »
Quotidien Hebdomadaire Mensuel Annuel Période au choix
  Maximum: Minimum: Moyenne:
Température: TemperatureC °C 12.4 °C 13 °C
Point de rosée: DewpointC °C 8.9 °C 10.1 °C
Humidité: Humidity % 76 % 79 %
Vitesse du vent: 0 km/h 0 km/h 9.8 km/h
Rafales: 0 km/h - -
Vent:- - ESE
Pression: PressurehPa hPa 1003.6 hPa -
Précipitations: 2.0 mm    
Historical Graphs
 
 
Mesures pour : Mars 10, 2018
Heure Temperature Point de rosée Pression Vent Vitesse du vent Rafales Humidité Pluie (par heure) Conditions
TemperatureC °C DewpointC °C PressurehPa hPa Calm     Humidity % HourlyPrecipMM mm SoftwareType W/m2
00:12 13.2 °C 9.2 °C 1009.7 hPa SE 3.4 km/h 5.1 km/h 77 % 0.0 mm open2300-1.11 W/m2
01:12 13.1 °C 8.9 °C 1009.4 hPa Calm   13.2 km/h 76 % 0.0 mm open2300-1.11 W/m2
02:12 12.4 °C 9.2 °C 1009.0 hPa Calm   10.3 km/h 81 % 0.0 mm open2300-1.11 W/m2
03:12 12.5 °C 9.2 °C 1008.0 hPa NE 4.2 km/h 14.5 km/h 80 % 0.0 mm open2300-1.11 W/m2
04:12 12.5 °C 8.9 °C 1007.3 hPa ESE 27.7 km/h 27.7 km/h 79 % 0.0 mm open2300-1.11 W/m2
05:11 12.5 °C 9.3 °C 1006.7 hPa SSE 12.2 km/h 12.2 km/h 81 % 0.0 mm open2300-1.11 W/m2
06:12 12.4 °C 9.7 °C 1006.3 hPa ESE 5.6 km/h 23.8 km/h 84 % 0.0 mm open2300-1.11 W/m2
07:11 12.4 °C 10.1 °C 1006.7 hPa ESE 8 km/h 17.4 km/h 86 % 0.0 mm open2300-1.11 W/m2
08:12 12.4 °C 10.3 °C 1007.0 hPa ESE 4.2 km/h 7.6 km/h 87 % 1.0 mm open2300-1.11 W/m2
09:12 12.6 °C 10.4 °C 1007.0 hPa ESE 9.3 km/h 9.3 km/h 87 % 0.5 mm open2300-1.11 W/m2
10:12 12.9 °C 10.8 °C 1006.7 hPa ESE 7.6 km/h 7.6 km/h 87 % 0.5 mm open2300-1.11 W/m2
11:12 13.6 °C 11.4 °C 1006.7 hPa Calm   10.3 km/h 87 % 0.0 mm open2300-1.11 W/m2
12:12 13.9 °C 11.8 °C 1007.0 hPa ESE 1.8 km/h 1.8 km/h 87 % 0.0 mm open2300-1.11 W/m2
13:12 13.9 °C 11.4 °C 1006.7 hPa East 4.7 km/h 11.6 km/h 85 % 0.0 mm open2300-1.11 W/m2
14:12 14.3 °C 11.6 °C 1006.3 hPa SE 11.6 km/h 24.8 km/h 84 % 0.0 mm open2300-1.11 W/m2
15:12 14.3 °C 11.6 °C 1005.6 hPa East 6.4 km/h 6.4 km/h 84 % 0.0 mm open2300-1.11 W/m2
16:12 14.7 °C 11.7 °C 1005.0 hPa East 16.9 km/h 16.9 km/h 82 % 0.0 mm open2300-1.11 W/m2
17:11 15.6 °C 11.8 °C 1004.6 hPa ESE 20.3 km/h 20.3 km/h 78 % 0.0 mm open2300-1.11 W/m2
18:11 14.7 °C 11.1 °C 1004.3 hPa SE 33.2 km/h 33.2 km/h 79 % 0.0 mm open2300-1.11 W/m2
19:12 13.9 °C 10.7 °C 1004.3 hPa ENE 14 km/h 14 km/h 81 % 0.0 mm open2300-1.11 W/m2
20:12 13.9 °C 10.5 °C 1004.3 hPa ENE 9.3 km/h 9.8 km/h 80 % 0.0 mm open2300-1.11 W/m2
21:12 14.1 °C 10.5 °C 1004.6 hPa ENE 5.6 km/h 19.6 km/h 79 % 0.0 mm open2300-1.11 W/m2
22:12 14.3 °C 10.5 °C 1003.6 hPa ESE 27.7 km/h 27.7 km/h 78 % 0.0 mm open2300-1.11 W/m2
23:12 14.1 °C 10.7 °C 1005.3 hPa ESE 11.6 km/h 13.2 km/h 80 % 0.0 mm open2300-1.11 W/m2
Observations météo à CASSIS
WU-History script by Weather Underground - 1 mb